createdAt,value
2019-01-20T00:00:16.980Z,0
2019-01-20T00:01:26.555Z,0
2019-01-20T00:02:35.663Z,0
2019-01-20T00:03:45.204Z,0
2019-01-20T00:04:54.483Z,0
2019-01-20T00:06:04.257Z,0
2019-01-20T00:07:13.280Z,0
2019-01-20T00:08:22.527Z,0
2019-01-20T00:09:31.383Z,0
2019-01-20T00:10:40.444Z,0
2019-01-20T00:11:49.662Z,0
2019-01-20T00:12:59.472Z,0
2019-01-20T00:14:08.920Z,0
2019-01-20T00:15:18.244Z,0
2019-01-20T00:16:27.776Z,0
2019-01-20T00:17:37.279Z,0
2019-01-20T00:18:46.549Z,0
2019-01-20T00:19:55.554Z,0
2019-01-20T00:21:04.828Z,0
2019-01-20T00:22:14.190Z,0
2019-01-20T00:23:23.212Z,0
2019-01-20T00:24:32.239Z,0
2019-01-20T00:25:41.869Z,0
2019-01-20T00:26:51.692Z,0
2019-01-20T00:28:01.748Z,0
2019-01-20T00:29:11.865Z,0
2019-01-20T00:30:21.434Z,0
2019-01-20T00:31:30.724Z,0
2019-01-20T00:32:39.982Z,0
2019-01-20T00:33:49.278Z,0
2019-01-20T00:34:58.817Z,0
2019-01-20T00:36:07.959Z,0
2019-01-20T00:37:17.256Z,0
2019-01-20T00:38:26.555Z,0
2019-01-20T00:39:35.834Z,0
2019-01-20T00:40:45.117Z,0
2019-01-20T00:41:54.165Z,0
2019-01-20T00:43:03.970Z,0
2019-01-20T00:44:13.615Z,0
2019-01-20T00:45:22.461Z,0
2019-01-20T00:46:31.769Z,0
2019-01-20T00:47:41.320Z,0
2019-01-20T00:48:50.351Z,0
2019-01-20T00:50:00.173Z,0
2019-01-20T00:51:09.770Z,0
2019-01-20T00:52:19.341Z,0
2019-01-20T00:53:29.099Z,0
2019-01-20T00:54:38.613Z,0
2019-01-20T00:55:47.670Z,0
2019-01-20T00:56:57.045Z,0
2019-01-20T00:58:06.148Z,0
2019-01-20T00:59:15.429Z,0
2019-01-20T01:00:24.689Z,0
2019-01-20T01:01:34.003Z,0
2019-01-20T01:02:42.738Z,0
2019-01-20T01:03:52.539Z,0
2019-01-20T01:05:01.826Z,0
2019-01-20T01:06:11.362Z,0
2019-01-20T01:07:20.632Z,0
2019-01-20T01:08:30.162Z,0
2019-01-20T01:09:39.489Z,0
2019-01-20T01:10:48.628Z,0
2019-01-20T01:11:57.647Z,0
2019-01-20T01:13:06.963Z,0
2019-01-20T01:14:15.991Z,0
2019-01-20T01:15:25.295Z,0
2019-01-20T01:16:34.640Z,0
2019-01-20T01:17:43.907Z,0
2019-01-20T01:18:52.710Z,0
2019-01-20T01:20:02.698Z,0
2019-01-20T01:21:12.142Z,0
2019-01-20T01:22:20.910Z,0
2019-01-20T01:23:30.123Z,0
2019-01-20T01:24:39.224Z,0
2019-01-20T01:25:48.475Z,0
2019-01-20T01:26:57.715Z,0
2019-01-20T01:28:06.751Z,0
2019-01-20T01:29:16.543Z,0
2019-01-20T01:30:25.875Z,0
2019-01-20T01:31:35.153Z,0
2019-01-20T01:32:44.991Z,0
2019-01-20T01:33:54.021Z,0
2019-01-20T01:35:03.345Z,0
2019-01-20T01:36:12.381Z,0
2019-01-20T01:37:21.405Z,0
2019-01-20T01:38:30.412Z,0
2019-01-20T01:39:40.016Z,0
2019-01-20T01:40:49.846Z,0
2019-01-20T01:41:58.888Z,0
2019-01-20T01:43:08.149Z,0
2019-01-20T01:44:16.903Z,0
2019-01-20T01:45:26.166Z,0
2019-01-20T01:46:35.227Z,0
2019-01-20T01:47:44.610Z,0
2019-01-20T01:48:53.610Z,0
2019-01-20T01:50:02.650Z,0
2019-01-20T01:51:11.728Z,0
2019-01-20T01:52:21.263Z,0
2019-01-20T01:53:30.575Z,0
2019-01-20T01:54:39.858Z,0
2019-01-20T01:55:48.848Z,0
2019-01-20T01:56:58.439Z,0
2019-01-20T01:58:08.210Z,0
2019-01-20T01:59:17.992Z,0
2019-01-20T02:00:27.383Z,0
2019-01-20T02:01:36.169Z,0
2019-01-20T02:02:45.424Z,0
2019-01-20T02:03:55.212Z,0
2019-01-20T02:05:04.544Z,0
2019-01-20T02:06:14.188Z,0
2019-01-20T02:07:23.249Z,0
2019-01-20T02:08:32.524Z,0
2019-01-20T02:09:41.856Z,0
2019-01-20T02:10:51.382Z,0
2019-01-20T02:12:00.650Z,0
2019-01-20T02:13:09.879Z,0
2019-01-20T02:14:19.164Z,0
2019-01-20T02:15:28.141Z,0
2019-01-20T02:16:37.382Z,0
2019-01-20T02:17:46.888Z,0
2019-01-20T02:18:56.395Z,0
2019-01-20T02:20:05.425Z,0
2019-01-20T02:21:15.204Z,0
2019-01-20T02:22:24.475Z,0
2019-01-20T02:23:33.729Z,0
2019-01-20T02:24:43.290Z,0
2019-01-20T02:25:52.852Z,0
2019-01-20T02:27:02.104Z,0
2019-01-20T02:28:11.396Z,0
2019-01-20T02:29:20.694Z,0
2019-01-20T02:30:30.326Z,0
2019-01-20T02:31:39.670Z,0
2019-01-20T02:32:48.690Z,0
2019-01-20T02:33:58.173Z,0
2019-01-20T02:35:07.407Z,0
2019-01-20T02:36:16.917Z,0
2019-01-20T02:37:26.717Z,0
2019-01-20T02:38:35.722Z,0
2019-01-20T02:39:45.249Z,0
2019-01-20T02:40:54.249Z,0
2019-01-20T02:42:03.277Z,0
2019-01-20T02:43:12.781Z,0
2019-01-20T02:44:22.006Z,0
2019-01-20T02:45:32.031Z,0
2019-01-20T02:46:41.325Z,0
2019-01-20T02:47:50.803Z,0
2019-01-20T02:49:00.295Z,0
2019-01-20T02:50:09.875Z,0
2019-01-20T02:51:19.206Z,0
2019-01-20T02:52:28.754Z,0
2019-01-20T02:53:38.271Z,0
2019-01-20T02:54:47.541Z,0
2019-01-20T02:55:56.795Z,0
2019-01-20T02:57:06.056Z,0
2019-01-20T02:58:15.307Z,0
2019-01-20T02:59:24.323Z,0
2019-01-20T03:00:33.852Z,0
2019-01-20T03:01:43.590Z,0
2019-01-20T03:02:52.679Z,0
2019-01-20T03:04:01.899Z,0
2019-01-20T03:05:11.632Z,0
2019-01-20T03:06:21.129Z,0
2019-01-20T03:07:30.388Z,0
2019-01-20T03:08:39.680Z,0
2019-01-20T03:09:48.727Z,0
2019-01-20T03:10:57.800Z,0
2019-01-20T03:12:10.488Z,0
2019-01-20T03:13:20.027Z,0
2019-01-20T03:14:29.279Z,0
2019-01-20T03:15:38.524Z,0
2019-01-20T03:16:47.774Z,0
2019-01-20T03:17:57.292Z,0
2019-01-20T03:19:06.534Z,0
2019-01-20T03:20:15.838Z,0
2019-01-20T03:21:24.833Z,0
2019-01-20T03:22:34.082Z,0
2019-01-20T03:23:43.843Z,0
2019-01-20T03:24:53.060Z,0
2019-01-20T03:26:02.320Z,0
2019-01-20T03:27:12.118Z,0
2019-01-20T03:28:21.117Z,0
2019-01-20T03:29:30.593Z,0
2019-01-20T03:30:40.360Z,0
2019-01-20T03:31:50.125Z,0
2019-01-20T03:33:00.190Z,0
2019-01-20T03:34:09.971Z,0
2019-01-20T03:35:19.756Z,0
2019-01-20T03:36:29.547Z,0
2019-01-20T03:37:38.795Z,0
2019-01-20T03:38:47.566Z,0
2019-01-20T03:39:57.185Z,0
2019-01-20T03:41:05.955Z,0
2019-01-20T03:42:18.944Z,0
2019-01-20T03:43:28.718Z,0
2019-01-20T03:44:37.736Z,0
2019-01-20T03:45:47.267Z,0
2019-01-20T03:46:56.491Z,0
2019-01-20T03:48:06.052Z,0
2019-01-20T03:49:15.306Z,0
2019-01-20T03:50:24.930Z,0
2019-01-20T03:51:34.484Z,0
2019-01-20T03:52:44.568Z,0
2019-01-20T03:53:53.569Z,0
2019-01-20T03:55:03.350Z,0
2019-01-20T03:56:12.882Z,0
2019-01-20T03:57:22.385Z,0
2019-01-20T03:58:32.157Z,0
2019-01-20T03:59:41.641Z,0
2019-01-20T04:00:50.913Z,0
2019-01-20T04:01:59.929Z,0
2019-01-20T04:03:08.951Z,0
2019-01-20T04:04:18.245Z,0
2019-01-20T04:05:27.810Z,0
2019-01-20T04:06:37.067Z,0
2019-01-20T04:07:46.776Z,0
2019-01-20T04:08:55.823Z,0
2019-01-20T04:10:05.615Z,0
2019-01-20T04:11:15.151Z,0
2019-01-20T04:12:27.634Z,0
2019-01-20T04:13:37.163Z,0
2019-01-20T04:14:46.159Z,0
2019-01-20T04:15:54.948Z,0
2019-01-20T04:17:03.996Z,0
2019-01-20T04:18:12.905Z,0
2019-01-20T04:19:22.411Z,0
2019-01-20T04:20:31.690Z,0
2019-01-20T04:21:40.976Z,0
2019-01-20T04:22:50.243Z,0
2019-01-20T04:23:59.527Z,0
2019-01-20T04:25:09.035Z,0
2019-01-20T04:26:18.848Z,0
2019-01-20T04:27:28.329Z,0
2019-01-20T04:28:38.093Z,0
2019-01-20T04:29:47.668Z,0
2019-01-20T04:30:57.243Z,0
2019-01-20T04:32:06.597Z,0
2019-01-20T04:33:15.651Z,0
2019-01-20T04:34:25.147Z,0
2019-01-20T04:35:34.668Z,0
2019-01-20T04:36:43.929Z,0
2019-01-20T04:37:53.464Z,0
2019-01-20T04:39:02.557Z,0
2019-01-20T04:40:12.110Z,0
2019-01-20T04:41:21.392Z,0
2019-01-20T04:42:36.088Z,0
2019-01-20T04:43:45.330Z,0
2019-01-20T04:44:55.351Z,0
2019-01-20T04:46:04.643Z,0
2019-01-20T04:47:13.688Z,0
2019-01-20T04:48:22.970Z,0
2019-01-20T04:49:32.312Z,0
2019-01-20T04:50:41.544Z,0
2019-01-20T04:51:51.506Z,0
2019-01-20T04:53:01.020Z,0
2019-01-20T04:54:11.049Z,0
2019-01-20T04:55:20.812Z,0
2019-01-20T04:56:30.564Z,0
2019-01-20T04:57:39.848Z,0
2019-01-20T04:58:49.127Z,0
2019-01-20T04:59:59.119Z,0
2019-01-20T05:01:08.382Z,0
2019-01-20T05:02:18.145Z,0
2019-01-20T05:03:27.625Z,0
2019-01-20T05:04:37.113Z,0
2019-01-20T05:05:46.366Z,0
2019-01-20T05:06:55.606Z,0
2019-01-20T05:08:05.471Z,0
2019-01-20T05:09:14.741Z,0
2019-01-20T05:10:23.756Z,0
2019-01-20T05:11:32.730Z,0
2019-01-20T05:12:44.631Z,0
2019-01-20T05:13:53.867Z,0
2019-01-20T05:15:02.901Z,0
2019-01-20T05:16:12.416Z,0
2019-01-20T05:17:22.173Z,0
2019-01-20T05:18:31.620Z,0
2019-01-20T05:19:40.898Z,0
2019-01-20T05:20:50.167Z,0
2019-01-20T05:21:59.697Z,0
2019-01-20T05:23:09.250Z,0
2019-01-20T05:24:19.059Z,0
2019-01-20T05:25:28.315Z,0
2019-01-20T05:26:38.363Z,0
2019-01-20T05:27:47.348Z,0
2019-01-20T05:28:56.344Z,0
2019-01-20T05:30:06.309Z,0
2019-01-20T05:31:15.624Z,0
2019-01-20T05:32:25.361Z,0
2019-01-20T05:33:34.874Z,0
2019-01-20T05:34:43.945Z,0
2019-01-20T05:35:53.217Z,0
2019-01-20T05:37:02.926Z,0
2019-01-20T05:38:12.203Z,0
2019-01-20T05:39:21.470Z,0
2019-01-20T05:40:30.516Z,0
2019-01-20T05:41:39.836Z,0
2019-01-20T05:42:53.572Z,0
2019-01-20T05:44:02.591Z,0
2019-01-20T05:45:11.869Z,0
2019-01-20T05:46:21.371Z,0
2019-01-20T05:47:30.896Z,0
2019-01-20T05:48:40.665Z,0
2019-01-20T05:49:49.678Z,0
2019-01-20T05:50:59.182Z,0
2019-01-20T05:52:08.239Z,0
2019-01-20T05:53:16.990Z,0
2019-01-20T05:54:26.754Z,0
2019-01-20T05:55:36.257Z,0
2019-01-20T05:56:45.228Z,0
2019-01-20T05:57:54.495Z,0
2019-01-20T05:59:03.748Z,0
2019-01-20T06:00:12.791Z,0
2019-01-20T06:01:22.335Z,0
2019-01-20T06:02:31.547Z,0
2019-01-20T06:03:40.783Z,0
2019-01-20T06:04:50.528Z,0
2019-01-20T06:05:59.744Z,0
2019-01-20T06:07:08.976Z,0
2019-01-20T06:08:18.741Z,0
2019-01-20T06:09:28.509Z,0
2019-01-20T06:10:37.743Z,0
2019-01-20T06:11:47.235Z,0
2019-01-20T06:13:01.477Z,0
2019-01-20T06:14:10.977Z,0
2019-01-20T06:15:19.921Z,0
2019-01-20T06:16:29.681Z,0
2019-01-20T06:17:38.954Z,0
2019-01-20T06:18:48.230Z,0
2019-01-20T06:19:57.228Z,0
2019-01-20T06:21:06.689Z,0
2019-01-20T06:22:16.145Z,0
2019-01-20T06:23:25.368Z,0
2019-01-20T06:24:34.855Z,0
2019-01-20T06:25:44.121Z,0
2019-01-20T06:26:53.575Z,0
2019-01-20T06:28:03.375Z,0
2019-01-20T06:29:13.125Z,0
2019-01-20T06:30:22.125Z,0
2019-01-20T06:31:31.364Z,0
2019-01-20T06:32:40.890Z,0
2019-01-20T06:33:50.179Z,0
2019-01-20T06:35:00.209Z,0
2019-01-20T06:36:09.785Z,0
2019-01-20T06:37:19.590Z,0
2019-01-20T06:38:28.834Z,0
2019-01-20T06:39:38.378Z,0
2019-01-20T06:40:48.384Z,0
2019-01-20T06:41:58.118Z,0
2019-01-20T06:43:09.011Z,0
2019-01-20T06:44:18.247Z,0
2019-01-20T06:45:27.760Z,0
2019-01-20T06:46:37.235Z,0
2019-01-20T06:47:46.521Z,0
2019-01-20T06:48:56.272Z,0
2019-01-20T06:50:05.289Z,0
2019-01-20T06:51:15.277Z,0
2019-01-20T06:52:25.560Z,0
2019-01-20T06:53:34.830Z,0
2019-01-20T06:54:44.080Z,0
2019-01-20T06:55:53.558Z,0
2019-01-20T06:57:02.809Z,0
2019-01-20T06:58:12.277Z,0
2019-01-20T06:59:21.269Z,0
2019-01-20T07:00:30.740Z,0
2019-01-20T07:01:39.738Z,0
2019-01-20T07:02:48.959Z,0
2019-01-20T07:03:58.511Z,0
2019-01-20T07:05:07.847Z,0
2019-01-20T07:06:17.096Z,0
2019-01-20T07:07:26.588Z,0
2019-01-20T07:08:35.880Z,0
2019-01-20T07:09:45.118Z,0
2019-01-20T07:10:54.092Z,0
2019-01-20T07:12:03.315Z,0
2019-01-20T07:13:17.826Z,0
2019-01-20T07:14:27.148Z,0
2019-01-20T07:15:36.929Z,0
2019-01-20T07:16:46.220Z,0
2019-01-20T07:17:55.818Z,0
2019-01-20T07:19:05.318Z,0
2019-01-20T07:20:14.562Z,0
2019-01-20T07:21:24.094Z,0
2019-01-20T07:22:33.758Z,0
2019-01-20T07:23:43.659Z,0
2019-01-20T07:24:52.677Z,0
2019-01-20T07:26:01.924Z,0
2019-01-20T07:27:11.653Z,0
2019-01-20T07:28:21.604Z,0
2019-01-20T07:29:31.533Z,0
2019-01-20T07:30:40.509Z,0
2019-01-20T07:31:49.731Z,0
2019-01-20T07:32:58.980Z,0
2019-01-20T07:34:08.717Z,0
2019-01-20T07:35:18.010Z,0
2019-01-20T07:36:27.511Z,0
2019-01-20T07:37:36.511Z,0
2019-01-20T07:38:45.744Z,0
2019-01-20T07:39:55.210Z,0
2019-01-20T07:41:04.173Z,0
2019-01-20T07:42:13.732Z,0
2019-01-20T07:43:23.834Z,0
2019-01-20T07:44:33.336Z,0
2019-01-20T07:45:43.097Z,0
2019-01-20T07:46:52.544Z,0
2019-01-20T07:48:01.544Z,0
2019-01-20T07:49:10.785Z,0
2019-01-20T07:50:20.025Z,4
2019-01-20T07:51:29.486Z,4
2019-01-20T07:52:38.747Z,4
2019-01-20T07:53:48.219Z,4
2019-01-20T07:54:57.178Z,4
2019-01-20T07:56:06.871Z,4
2019-01-20T07:57:16.375Z,4
2019-01-20T07:58:26.090Z,4
2019-01-20T07:59:35.584Z,4
2019-01-20T08:00:44.841Z,4
2019-01-20T08:01:53.836Z,4
2019-01-20T08:03:03.048Z,4
2019-01-20T08:04:12.551Z,4
2019-01-20T08:05:22.328Z,4
2019-01-20T08:06:31.809Z,4
2019-01-20T08:07:41.274Z,4
2019-01-20T08:08:50.353Z,0
2019-01-20T08:09:59.653Z,0
2019-01-20T08:11:09.123Z,0
2019-01-20T08:12:25.885Z,0
2019-01-20T08:13:34.617Z,0
2019-01-20T08:14:43.856Z,0
2019-01-20T08:15:53.307Z,4
2019-01-20T08:17:03.297Z,4
2019-01-20T08:18:12.275Z,4
2019-01-20T08:19:20.991Z,4
2019-01-20T08:20:30.268Z,4
2019-01-20T08:21:39.771Z,4
2019-01-20T08:22:49.008Z,4
2019-01-20T08:23:58.532Z,4
2019-01-20T08:25:08.042Z,4
2019-01-20T08:26:17.491Z,4
2019-01-20T08:27:26.197Z,4
2019-01-20T08:28:35.682Z,4
2019-01-20T08:29:45.419Z,4
2019-01-20T08:30:54.709Z,4
2019-01-20T08:32:03.736Z,8
2019-01-20T08:33:13.252Z,8
2019-01-20T08:34:23.380Z,8
2019-01-20T08:35:32.835Z,4
2019-01-20T08:36:41.840Z,4
2019-01-20T08:37:51.075Z,4
2019-01-20T08:39:00.124Z,4
2019-01-20T08:40:09.137Z,4
2019-01-20T08:41:17.873Z,4
2019-01-20T08:42:27.118Z,4
2019-01-20T08:43:38.965Z,4
2019-01-20T08:44:47.979Z,4
2019-01-20T08:45:57.221Z,4
2019-01-20T08:47:06.949Z,8
2019-01-20T08:48:15.922Z,8
2019-01-20T08:49:25.149Z,8
2019-01-20T08:50:34.649Z,8
2019-01-20T08:51:44.634Z,8
2019-01-20T08:52:54.401Z,8
2019-01-20T08:54:03.861Z,4
2019-01-20T08:55:13.617Z,4
2019-01-20T08:56:23.124Z,4
2019-01-20T08:57:32.109Z,8
2019-01-20T08:58:41.572Z,8
2019-01-20T08:59:50.846Z,8
2019-01-20T09:01:00.079Z,8
2019-01-20T09:02:09.813Z,8
2019-01-20T09:03:18.847Z,8
2019-01-20T09:04:28.118Z,8
2019-01-20T09:05:37.086Z,12
2019-01-20T09:06:46.342Z,12
2019-01-20T09:07:55.402Z,12
2019-01-20T09:09:04.640Z,12
2019-01-20T09:10:14.144Z,12
2019-01-20T09:11:23.610Z,12
2019-01-20T09:12:33.100Z,12
2019-01-20T09:13:46.615Z,12
2019-01-20T09:14:56.398Z,12
2019-01-20T09:16:06.121Z,12
2019-01-20T09:17:14.847Z,12
2019-01-20T09:18:24.571Z,12
2019-01-20T09:19:33.531Z,12
2019-01-20T09:20:43.288Z,12
2019-01-20T09:21:52.274Z,12
2019-01-20T09:23:01.509Z,12
2019-01-20T09:24:11.032Z,12
2019-01-20T09:25:20.332Z,12
2019-01-20T09:26:29.309Z,12
2019-01-20T09:27:39.331Z,12
2019-01-20T09:28:48.585Z,12
2019-01-20T09:29:57.795Z,12
2019-01-20T09:31:07.542Z,12
2019-01-20T09:32:16.754Z,12
2019-01-20T09:33:31.601Z,16
2019-01-20T09:34:40.900Z,12
2019-01-20T09:35:50.116Z,12
2019-01-20T09:36:59.585Z,16
2019-01-20T09:38:09.326Z,16
2019-01-20T09:39:19.052Z,16
2019-01-20T09:40:28.859Z,16
2019-01-20T09:41:38.586Z,16
2019-01-20T09:42:47.866Z,20
2019-01-20T09:43:57.617Z,20
2019-01-20T09:45:07.138Z,20
2019-01-20T09:46:16.657Z,20
2019-01-20T09:47:25.880Z,24
2019-01-20T09:48:34.900Z,24
2019-01-20T09:49:44.993Z,28
2019-01-20T09:50:54.202Z,28
2019-01-20T09:52:03.758Z,28
2019-01-20T09:53:13.227Z,28
2019-01-20T09:54:22.438Z,28
2019-01-20T09:55:31.685Z,28
2019-01-20T09:56:40.656Z,32
2019-01-20T09:57:50.389Z,32
2019-01-20T09:58:59.946Z,32
2019-01-20T10:00:09.429Z,36
2019-01-20T10:01:18.666Z,32
2019-01-20T10:02:28.175Z,36
2019-01-20T10:03:37.135Z,36
2019-01-20T10:04:46.830Z,36
2019-01-20T10:05:56.299Z,40
2019-01-20T10:07:05.550Z,40
2019-01-20T10:08:15.270Z,40
2019-01-20T10:09:24.750Z,40
2019-01-20T10:10:35.527Z,40
2019-01-20T10:11:44.731Z,44
2019-01-20T10:12:54.455Z,44
2019-01-20T10:14:03.430Z,40
2019-01-20T10:15:12.426Z,44
2019-01-20T10:16:21.645Z,44
2019-01-20T10:17:30.625Z,44
2019-01-20T10:18:39.857Z,44
2019-01-20T10:19:49.612Z,44
2019-01-20T10:20:59.620Z,44
2019-01-20T10:22:09.358Z,44
2019-01-20T10:23:18.834Z,44
2019-01-20T10:24:28.175Z,44
2019-01-20T10:25:37.653Z,44
2019-01-20T10:26:47.159Z,44
2019-01-20T10:27:56.899Z,40
2019-01-20T10:29:06.398Z,40
2019-01-20T10:30:15.434Z,44
2019-01-20T10:31:24.711Z,44
2019-01-20T10:32:33.911Z,40
2019-01-20T10:33:43.161Z,40
2019-01-20T10:34:52.386Z,44
2019-01-20T10:36:01.347Z,40
2019-01-20T10:37:11.062Z,40
2019-01-20T10:38:20.201Z,40
2019-01-20T10:39:29.182Z,40
2019-01-20T10:40:39.060Z,40
2019-01-20T10:41:48.293Z,36
2019-01-20T10:42:57.542Z,36
2019-01-20T10:44:09.603Z,40
2019-01-20T10:45:19.340Z,36
2019-01-20T10:46:28.818Z,36
2019-01-20T10:47:38.657Z,36
2019-01-20T10:48:47.881Z,36
2019-01-20T10:49:57.101Z,36
2019-01-20T10:51:05.835Z,32
2019-01-20T10:52:15.386Z,36
2019-01-20T10:53:25.177Z,36
2019-01-20T10:54:34.426Z,32
2019-01-20T10:55:43.651Z,32
2019-01-20T10:56:52.646Z,32
2019-01-20T10:58:01.892Z,32
2019-01-20T10:59:11.216Z,32
2019-01-20T11:00:20.772Z,32
2019-01-20T11:01:29.743Z,32
2019-01-20T11:02:38.741Z,32
2019-01-20T11:03:48.006Z,32
2019-01-20T11:05:05.703Z,28
2019-01-20T11:06:15.437Z,32
2019-01-20T11:07:24.458Z,32
2019-01-20T11:08:34.294Z,28
2019-01-20T11:09:43.544Z,28
2019-01-20T11:10:52.784Z,28
2019-01-20T11:12:02.290Z,28
2019-01-20T11:13:11.297Z,28
2019-01-20T11:14:20.781Z,28
2019-01-20T11:15:30.581Z,28
2019-01-20T11:16:40.071Z,24
2019-01-20T11:17:49.637Z,24
2019-01-20T11:18:59.607Z,24
2019-01-20T11:20:09.099Z,24
2019-01-20T11:21:18.151Z,28
2019-01-20T11:22:28.282Z,24
2019-01-20T11:23:37.778Z,28
2019-01-20T11:24:47.096Z,28
2019-01-20T11:25:56.601Z,24
2019-01-20T11:27:05.673Z,24
2019-01-20T11:28:15.550Z,20
2019-01-20T11:29:25.172Z,24
2019-01-20T11:30:36.088Z,20
2019-01-20T11:31:44.892Z,20
2019-01-20T11:32:53.647Z,24
2019-01-20T11:34:02.626Z,20
2019-01-20T11:35:11.361Z,20
2019-01-20T11:36:20.494Z,20
2019-01-20T11:37:30.250Z,20
2019-01-20T11:38:39.332Z,16
2019-01-20T11:39:49.301Z,20
2019-01-20T11:40:58.112Z,16
2019-01-20T11:42:08.610Z,20
2019-01-20T11:43:18.401Z,16
2019-01-20T11:44:27.780Z,16
2019-01-20T11:45:37.273Z,16
2019-01-20T11:46:46.631Z,12
2019-01-20T11:47:55.940Z,12
2019-01-20T11:49:05.207Z,16
2019-01-20T11:50:14.759Z,16
2019-01-20T11:51:24.284Z,16
2019-01-20T11:52:33.571Z,12
2019-01-20T11:53:42.836Z,16
2019-01-20T11:54:52.902Z,16
2019-01-20T11:56:01.913Z,16
2019-01-20T11:57:10.652Z,16
2019-01-20T11:58:19.695Z,16
2019-01-20T11:59:28.437Z,16
2019-01-20T12:00:37.718Z,16
2019-01-20T12:01:46.523Z,12
2019-01-20T12:02:55.792Z,12
2019-01-20T12:04:05.080Z,12
2019-01-20T12:05:14.331Z,16
2019-01-20T12:06:24.397Z,16
2019-01-20T12:07:33.385Z,12
2019-01-20T12:08:42.420Z,16
2019-01-20T12:09:51.466Z,20
2019-01-20T12:11:00.726Z,16
2019-01-20T12:12:09.982Z,20
2019-01-20T12:13:19.272Z,20
2019-01-20T12:14:31.265Z,24
2019-01-20T12:15:40.843Z,20
2019-01-20T12:16:50.169Z,20
2019-01-20T12:17:59.217Z,20
2019-01-20T12:19:08.722Z,24
2019-01-20T12:20:18.264Z,20
2019-01-20T12:21:27.278Z,20
2019-01-20T12:22:36.589Z,20
2019-01-20T12:23:45.866Z,24
2019-01-20T12:24:55.256Z,20
2019-01-20T12:26:04.260Z,24
2019-01-20T12:27:13.838Z,24
2019-01-20T12:28:23.190Z,28
2019-01-20T12:29:32.548Z,24
2019-01-20T12:30:41.335Z,24
2019-01-20T12:31:51.110Z,28
2019-01-20T12:33:00.142Z,28
2019-01-20T12:34:09.440Z,24
2019-01-20T12:35:18.763Z,28
2019-01-20T12:36:28.309Z,28
2019-01-20T12:37:37.314Z,32
2019-01-20T12:38:46.572Z,28
2019-01-20T12:39:56.061Z,28
2019-01-20T12:41:05.589Z,28
2019-01-20T12:42:15.087Z,28
2019-01-20T12:43:24.656Z,28
2019-01-20T12:44:38.253Z,28
2019-01-20T12:45:47.507Z,28
2019-01-20T12:46:56.263Z,28
2019-01-20T12:48:05.766Z,28
2019-01-20T12:49:14.993Z,28
2019-01-20T12:50:24.466Z,28
2019-01-20T12:51:35.642Z,24
2019-01-20T12:52:45.243Z,28
2019-01-20T12:53:54.970Z,28
2019-01-20T12:55:03.991Z,24
2019-01-20T12:56:13.753Z,24
2019-01-20T12:57:23.357Z,28
2019-01-20T12:58:32.357Z,24
2019-01-20T12:59:41.356Z,24
2019-01-20T13:00:50.618Z,24
2019-01-20T13:02:00.465Z,28
2019-01-20T13:03:10.229Z,24
2019-01-20T13:04:20.037Z,20
2019-01-20T13:05:29.383Z,24
2019-01-20T13:06:39.165Z,24
2019-01-20T13:07:47.932Z,20
2019-01-20T13:08:57.206Z,20
2019-01-20T13:10:06.497Z,12
2019-01-20T13:11:15.986Z,12
2019-01-20T13:12:25.513Z,8
2019-01-20T13:13:35.214Z,12
2019-01-20T13:14:46.051Z,8
2019-01-20T13:15:55.055Z,8
2019-01-20T13:17:04.596Z,8
2019-01-20T13:18:14.166Z,8
2019-01-20T13:19:23.921Z,12
2019-01-20T13:20:32.920Z,12
2019-01-20T13:21:42.510Z,12
2019-01-20T13:22:51.517Z,12
2019-01-20T13:24:01.080Z,8
2019-01-20T13:25:10.967Z,8
2019-01-20T13:26:20.611Z,8
2019-01-20T13:27:29.982Z,8
2019-01-20T13:28:39.286Z,8
2019-01-20T13:29:48.363Z,8
2019-01-20T13:30:57.688Z,8
2019-01-20T13:32:06.954Z,8
2019-01-20T13:33:16.244Z,8
2019-01-20T13:34:25.762Z,8
2019-01-20T13:35:35.007Z,12
2019-01-20T13:36:44.622Z,12
2019-01-20T13:37:54.155Z,8
2019-01-20T13:39:03.403Z,8
2019-01-20T13:40:13.179Z,8
2019-01-20T13:41:22.974Z,8
2019-01-20T13:42:32.001Z,8
2019-01-20T13:43:41.296Z,8
2019-01-20T13:44:53.567Z,8
2019-01-20T13:46:03.147Z,8
2019-01-20T13:47:12.447Z,8
2019-01-20T13:48:21.700Z,8
2019-01-20T13:49:30.991Z,8
2019-01-20T13:50:40.539Z,8
2019-01-20T13:51:50.630Z,8
2019-01-20T13:52:59.785Z,8
2019-01-20T13:54:09.065Z,8
2019-01-20T13:55:19.119Z,4
2019-01-20T13:56:28.645Z,4
2019-01-20T13:57:38.162Z,4
2019-01-20T13:58:48.531Z,4
2019-01-20T13:59:57.802Z,8
2019-01-20T14:01:07.318Z,8
2019-01-20T14:02:16.633Z,8
2019-01-20T14:03:26.403Z,8
2019-01-20T14:04:35.949Z,8
2019-01-20T14:05:45.604Z,8
2019-01-20T14:06:55.166Z,8
2019-01-20T14:08:04.212Z,8
2019-01-20T14:09:13.421Z,8
2019-01-20T14:10:22.705Z,8
2019-01-20T14:11:31.961Z,4
2019-01-20T14:12:40.978Z,4
2019-01-20T14:13:50.266Z,4
2019-01-20T14:15:00.765Z,4
2019-01-20T14:16:10.311Z,4
2019-01-20T14:17:19.308Z,4
2019-01-20T14:18:28.631Z,4
2019-01-20T14:19:37.679Z,4
2019-01-20T14:20:46.891Z,4
2019-01-20T14:21:55.890Z,4
2019-01-20T14:23:05.477Z,8
2019-01-20T14:24:14.734Z,8
2019-01-20T14:25:24.059Z,8
2019-01-20T14:26:33.323Z,8
2019-01-20T14:27:42.612Z,8
2019-01-20T14:28:51.889Z,4
2019-01-20T14:30:01.444Z,4
2019-01-20T14:31:11.208Z,4
2019-01-20T14:32:20.769Z,4
2019-01-20T14:33:29.759Z,4
2019-01-20T14:34:38.803Z,4
2019-01-20T14:35:48.034Z,4
2019-01-20T14:36:57.555Z,4
2019-01-20T14:38:06.810Z,4
2019-01-20T14:39:15.877Z,4
2019-01-20T14:40:25.440Z,4
2019-01-20T14:41:34.226Z,4
2019-01-20T14:42:43.291Z,4
2019-01-20T14:43:52.352Z,4
2019-01-20T14:45:08.028Z,4
2019-01-20T14:46:17.348Z,4
2019-01-20T14:47:26.889Z,4
2019-01-20T14:48:36.821Z,4
2019-01-20T14:49:46.066Z,4
2019-01-20T14:50:55.600Z,4
2019-01-20T14:52:04.940Z,4
2019-01-20T14:53:14.498Z,4
2019-01-20T14:54:24.010Z,4
2019-01-20T14:55:33.589Z,4
2019-01-20T14:56:43.560Z,4
2019-01-20T14:57:52.858Z,4
2019-01-20T14:59:02.370Z,4
2019-01-20T15:00:11.657Z,0
2019-01-20T15:01:20.644Z,0
2019-01-20T15:02:29.873Z,0
2019-01-20T15:03:39.592Z,4
2019-01-20T15:04:49.353Z,0
2019-01-20T15:05:58.914Z,0
2019-01-20T15:07:08.205Z,0
2019-01-20T15:08:17.500Z,0
2019-01-20T15:09:26.909Z,0
2019-01-20T15:10:36.462Z,4
2019-01-20T15:11:45.755Z,4
2019-01-20T15:12:55.266Z,4
2019-01-20T15:14:04.850Z,4
2019-01-20T15:15:16.040Z,4
2019-01-20T15:16:25.650Z,4
2019-01-20T15:17:35.151Z,4
2019-01-20T15:18:44.199Z,4
2019-01-20T15:19:53.457Z,4
2019-01-20T15:21:02.809Z,4
2019-01-20T15:22:12.876Z,4
2019-01-20T15:23:22.360Z,4
2019-01-20T15:24:35.840Z,4
2019-01-20T15:25:44.846Z,4
2019-01-20T15:26:54.115Z,4
2019-01-20T15:28:03.415Z,4
2019-01-20T15:29:12.959Z,4
2019-01-20T15:30:24.542Z,4
2019-01-20T15:31:33.622Z,4
2019-01-20T15:32:43.122Z,4
2019-01-20T15:33:52.082Z,4
2019-01-20T15:35:01.336Z,4
2019-01-20T15:36:10.341Z,4
2019-01-20T15:37:20.175Z,0
2019-01-20T15:38:29.203Z,0
2019-01-20T15:39:38.505Z,0
2019-01-20T15:40:48.265Z,0
2019-01-20T15:41:57.818Z,0
2019-01-20T15:43:06.862Z,0
2019-01-20T15:44:15.934Z,0
2019-01-20T15:45:25.775Z,0
2019-01-20T15:46:34.817Z,0
2019-01-20T15:47:44.578Z,0
2019-01-20T15:48:54.131Z,0
2019-01-20T15:50:03.396Z,0
2019-01-20T15:51:13.208Z,0
2019-01-20T15:52:22.712Z,0
2019-01-20T15:53:32.236Z,0
2019-01-20T15:54:41.596Z,0
2019-01-20T15:55:50.902Z,0
2019-01-20T15:56:59.684Z,0
2019-01-20T15:58:08.710Z,0
2019-01-20T15:59:18.272Z,0
2019-01-20T16:00:27.288Z,0
2019-01-20T16:01:36.600Z,0
2019-01-20T16:02:45.891Z,0
2019-01-20T16:03:55.459Z,0
2019-01-20T16:05:04.541Z,0
2019-01-20T16:06:13.858Z,0
2019-01-20T16:07:23.126Z,0
2019-01-20T16:08:32.147Z,0
2019-01-20T16:09:41.956Z,0
2019-01-20T16:10:51.009Z,0
2019-01-20T16:12:00.531Z,0
2019-01-20T16:13:09.919Z,0
2019-01-20T16:14:19.206Z,0
2019-01-20T16:15:31.800Z,0
2019-01-20T16:16:42.886Z,0
2019-01-20T16:17:52.403Z,0
2019-01-20T16:19:01.225Z,0
2019-01-20T16:20:10.495Z,0
2019-01-20T16:21:19.535Z,0
2019-01-20T16:22:29.321Z,0
2019-01-20T16:23:38.664Z,0
2019-01-20T16:24:47.920Z,0
2019-01-20T16:25:57.479Z,0
2019-01-20T16:27:07.601Z,0
2019-01-20T16:28:17.158Z,0
2019-01-20T16:29:26.156Z,0
2019-01-20T16:30:35.675Z,0
2019-01-20T16:31:47.190Z,0
2019-01-20T16:32:56.991Z,0
2019-01-20T16:34:06.521Z,0
2019-01-20T16:35:15.745Z,0
2019-01-20T16:36:25.509Z,0
2019-01-20T16:37:35.012Z,0
2019-01-20T16:38:44.769Z,0
2019-01-20T16:39:53.481Z,0
2019-01-20T16:41:02.697Z,0
2019-01-20T16:42:12.743Z,0
2019-01-20T16:43:22.227Z,0
2019-01-20T16:44:31.571Z,0
2019-01-20T16:45:48.669Z,0
2019-01-20T16:46:57.963Z,0
2019-01-20T16:48:06.942Z,0
2019-01-20T16:49:16.508Z,0
2019-01-20T16:50:26.013Z,0
2019-01-20T16:51:34.797Z,0
2019-01-20T16:52:43.811Z,0
2019-01-20T16:53:53.754Z,0
2019-01-20T16:55:03.588Z,0
2019-01-20T16:56:12.817Z,0
2019-01-20T16:57:22.122Z,0
2019-01-20T16:58:31.668Z,0